sensor_id;sensor_type;location;lat;lon;timestamp;temperature;humidity
52125;DHT22;38119;52.710;6.398;2023-08-31T00:00:35;12.30;99.90
52125;DHT22;38119;52.710;6.398;2023-08-31T00:03:03;12.30;99.90
52125;DHT22;38119;52.710;6.398;2023-08-31T00:05:28;12.30;99.90
52125;DHT22;38119;52.710;6.398;2023-08-31T00:07:56;12.40;99.90
52125;DHT22;38119;52.710;6.398;2023-08-31T00:10:21;12.40;99.90
52125;DHT22;38119;52.710;6.398;2023-08-31T00:12:47;12.40;99.90
52125;DHT22;38119;52.710;6.398;2023-08-31T00:15:14;12.40;99.90
52125;DHT22;38119;52.710;6.398;2023-08-31T00:17:40;12.40;99.90
52125;DHT22;38119;52.710;6.398;2023-08-31T00:20:07;12.40;99.90
52125;DHT22;38119;52.710;6.398;2023-08-31T00:22:33;12.40;99.90
52125;DHT22;38119;52.710;6.398;2023-08-31T00:24:59;12.40;99.90
52125;DHT22;38119;52.710;6.398;2023-08-31T00:27:24;12.40;99.90
52125;DHT22;38119;52.710;6.398;2023-08-31T00:29:50;12.40;99.90
52125;DHT22;38119;52.710;6.398;2023-08-31T00:32:17;12.50;99.90
52125;DHT22;38119;52.710;6.398;2023-08-31T00:34:44;12.40;99.90
52125;DHT22;38119;52.710;6.398;2023-08-31T00:37:09;12.50;99.90
52125;DHT22;38119;52.710;6.398;2023-08-31T00:39:35;12.40;99.90
52125;DHT22;38119;52.710;6.398;2023-08-31T00:42:01;12.40;99.90
52125;DHT22;38119;52.710;6.398;2023-08-31T00:44:26;12.40;99.90
52125;DHT22;38119;52.710;6.398;2023-08-31T00:46:52;12.40;99.90
52125;DHT22;38119;52.710;6.398;2023-08-31T00:49:18;12.40;99.90
52125;DHT22;38119;52.710;6.398;2023-08-31T00:51:45;12.40;99.90
52125;DHT22;38119;52.710;6.398;2023-08-31T00:54:17;12.40;99.90
52125;DHT22;38119;52.710;6.398;2023-08-31T00:56:43;12.40;99.90
52125;DHT22;38119;52.710;6.398;2023-08-31T00:59:09;12.30;99.90
52125;DHT22;38119;52.710;6.398;2023-08-31T01:02:01;12.40;99.90
52125;DHT22;38119;52.710;6.398;2023-08-31T01:07:45;12.40;99.90
52125;DHT22;38119;52.710;6.398;2023-08-31T01:10:32;12.40;99.90
52125;DHT22;38119;52.710;6.398;2023-08-31T01:15:36;12.30;99.90
52125;DHT22;38119;52.710;6.398;2023-08-31T01:18:04;12.30;99.90
52125;DHT22;38119;52.710;6.398;2023-08-31T01:20:58;12.30;99.90
52125;DHT22;38119;52.710;6.398;2023-08-31T01:23:31;12.30;99.90
52125;DHT22;38119;52.710;6.398;2023-08-31T01:25:59;12.30;99.90
52125;DHT22;38119;52.710;6.398;2023-08-31T01:28:25;12.30;99.90
52125;DHT22;38119;52.710;6.398;2023-08-31T01:30:51;12.20;99.90
52125;DHT22;38119;52.710;6.398;2023-08-31T01:33:17;12.20;99.90
52125;DHT22;38119;52.710;6.398;2023-08-31T01:35:46;12.30;99.90
52125;DHT22;38119;52.710;6.398;2023-08-31T01:38:16;12.20;99.90
52125;DHT22;38119;52.710;6.398;2023-08-31T01:40:49;12.20;99.90
52125;DHT22;38119;52.710;6.398;2023-08-31T01:43:18;12.20;99.90
52125;DHT22;38119;52.710;6.398;2023-08-31T01:45:46;12.20;99.90
52125;DHT22;38119;52.710;6.398;2023-08-31T01:48:14;12.20;99.90
52125;DHT22;38119;52.710;6.398;2023-08-31T01:50:40;12.10;99.90
52125;DHT22;38119;52.710;6.398;2023-08-31T01:53:05;12.10;99.90
52125;DHT22;38119;52.710;6.398;2023-08-31T01:55:32;12.10;99.90
52125;DHT22;38119;52.710;6.398;2023-08-31T01:57:58;12.10;99.90
52125;DHT22;38119;52.710;6.398;2023-08-31T02:00:25;12.00;99.90
52125;DHT22;38119;52.710;6.398;2023-08-31T02:02:51;12.00;99.90
52125;DHT22;38119;52.710;6.398;2023-08-31T02:05:16;12.00;99.90
52125;DHT22;38119;52.710;6.398;2023-08-31T02:07:42;12.00;99.90
52125;DHT22;38119;52.710;6.398;2023-08-31T02:10:08;12.00;99.90
52125;DHT22;38119;52.710;6.398;2023-08-31T02:12:34;12.00;99.90
52125;DHT22;38119;52.710;6.398;2023-08-31T02:15:01;12.00;99.90
52125;DHT22;38119;52.710;6.398;2023-08-31T02:17:27;12.00;99.90
52125;DHT22;38119;52.710;6.398;2023-08-31T02:19:53;11.90;99.90
52125;DHT22;38119;52.710;6.398;2023-08-31T02:22:19;11.90;99.90
52125;DHT22;38119;52.710;6.398;2023-08-31T02:24:45;11.90;99.90
52125;DHT22;38119;52.710;6.398;2023-08-31T02:27:11;11.90;99.90
52125;DHT22;38119;52.710;6.398;2023-08-31T02:29:36;11.80;99.90
52125;DHT22;38119;52.710;6.398;2023-08-31T02:32:05;11.80;99.90
52125;DHT22;38119;52.710;6.398;2023-08-31T02:34:31;11.80;99.90
52125;DHT22;38119;52.710;6.398;2023-08-31T02:36:56;11.80;99.90
52125;DHT22;38119;52.710;6.398;2023-08-31T02:39:23;11.70;99.90
52125;DHT22;38119;52.710;6.398;2023-08-31T02:41:48;11.70;99.90
52125;DHT22;38119;52.710;6.398;2023-08-31T02:44:14;11.70;99.90
52125;DHT22;38119;52.710;6.398;2023-08-31T02:46:40;11.60;99.90
52125;DHT22;38119;52.710;6.398;2023-08-31T02:49:05;11.60;99.90
52125;DHT22;38119;52.710;6.398;2023-08-31T02:51:31;11.60;99.90
52125;DHT22;38119;52.710;6.398;2023-08-31T02:53:56;11.60;99.90
52125;DHT22;38119;52.710;6.398;2023-08-31T02:56:22;11.50;99.90
52125;DHT22;38119;52.710;6.398;2023-08-31T02:58:47;11.50;99.90
52125;DHT22;38119;52.710;6.398;2023-08-31T03:01:13;11.50;99.90
52125;DHT22;38119;52.710;6.398;2023-08-31T03:03:41;11.50;99.90
52125;DHT22;38119;52.710;6.398;2023-08-31T03:06:07;11.50;99.90
52125;DHT22;38119;52.710;6.398;2023-08-31T03:08:36;11.50;99.90
52125;DHT22;38119;52.710;6.398;2023-08-31T03:11:05;11.50;99.90
52125;DHT22;38119;52.710;6.398;2023-08-31T03:13:32;11.50;99.90
52125;DHT22;38119;52.710;6.398;2023-08-31T03:15:59;11.50;99.90
52125;DHT22;38119;52.710;6.398;2023-08-31T03:18:25;11.50;99.90
52125;DHT22;38119;52.710;6.398;2023-08-31T03:20:50;11.50;99.90
52125;DHT22;38119;52.710;6.398;2023-08-31T03:23:16;11.50;99.90
52125;DHT22;38119;52.710;6.398;2023-08-31T03:25:41;11.50;99.90
52125;DHT22;38119;52.710;6.398;2023-08-31T03:28:07;11.50;99.90
52125;DHT22;38119;52.710;6.398;2023-08-31T03:30:33;11.50;99.90
52125;DHT22;38119;52.710;6.398;2023-08-31T03:32:59;11.40;99.90
52125;DHT22;38119;52.710;6.398;2023-08-31T03:35:24;11.40;99.90
52125;DHT22;38119;52.710;6.398;2023-08-31T03:37:53;11.40;99.90
52125;DHT22;38119;52.710;6.398;2023-08-31T03:40:18;11.40;99.90
52125;DHT22;38119;52.710;6.398;2023-08-31T03:42:44;11.40;99.90
52125;DHT22;38119;52.710;6.398;2023-08-31T03:45:10;11.40;99.90
52125;DHT22;38119;52.710;6.398;2023-08-31T03:47:36;11.40;99.90
52125;DHT22;38119;52.710;6.398;2023-08-31T03:50:02;11.40;99.90
52125;DHT22;38119;52.710;6.398;2023-08-31T03:52:27;11.40;99.90
52125;DHT22;38119;52.710;6.398;2023-08-31T03:54:54;11.40;99.90
52125;DHT22;38119;52.710;6.398;2023-08-31T03:57:19;11.40;99.90
52125;DHT22;38119;52.710;6.398;2023-08-31T03:59:45;11.40;99.90
52125;DHT22;38119;52.710;6.398;2023-08-31T04:02:11;11.40;99.90
52125;DHT22;38119;52.710;6.398;2023-08-31T04:04:36;11.50;99.90
52125;DHT22;38119;52.710;6.398;2023-08-31T04:07:02;11.50;99.90
52125;DHT22;38119;52.710;6.398;2023-08-31T04:09:28;11.50;99.90
52125;DHT22;38119;52.710;6.398;2023-08-31T04:11:53;11.50;99.90
52125;DHT22;38119;52.710;6.398;2023-08-31T04:14:19;11.50;99.90
52125;DHT22;38119;52.710;6.398;2023-08-31T04:16:45;11.40;99.90
52125;DHT22;38119;52.710;6.398;2023-08-31T04:19:12;11.50;99.90
52125;DHT22;38119;52.710;6.398;2023-08-31T04:21:38;11.40;99.90
52125;DHT22;38119;52.710;6.398;2023-08-31T04:24:04;11.50;99.90
52125;DHT22;38119;52.710;6.398;2023-08-31T04:26:30;11.50;99.90
52125;DHT22;38119;52.710;6.398;2023-08-31T04:28:56;11.50;99.90
52125;DHT22;38119;52.710;6.398;2023-08-31T04:31:22;11.50;99.90
52125;DHT22;38119;52.710;6.398;2023-08-31T04:33:48;11.50;99.90
52125;DHT22;38119;52.710;6.398;2023-08-31T04:36:13;11.50;99.90
52125;DHT22;38119;52.710;6.398;2023-08-31T04:38:39;11.60;99.90
52125;DHT22;38119;52.710;6.398;2023-08-31T04:41:05;11.60;99.90
52125;DHT22;38119;52.710;6.398;2023-08-31T04:43:31;11.60;99.90
52125;DHT22;38119;52.710;6.398;2023-08-31T04:45:56;11.60;99.90
52125;DHT22;38119;52.710;6.398;2023-08-31T04:48:22;11.60;99.90
52125;DHT22;38119;52.710;6.398;2023-08-31T04:50:48;11.60;99.90
52125;DHT22;38119;52.710;6.398;2023-08-31T04:53:14;11.60;99.90
52125;DHT22;38119;52.710;6.398;2023-08-31T04:55:39;11.60;99.90
52125;DHT22;38119;52.710;6.398;2023-08-31T04:58:05;11.70;99.90
52125;DHT22;38119;52.710;6.398;2023-08-31T05:00:31;11.70;99.90
52125;DHT22;38119;52.710;6.398;2023-08-31T05:02:57;11.70;99.90
52125;DHT22;38119;52.710;6.398;2023-08-31T05:05:22;11.70;99.90
52125;DHT22;38119;52.710;6.398;2023-08-31T05:07:48;11.80;99.90
52125;DHT22;38119;52.710;6.398;2023-08-31T05:10:14;11.80;99.90
52125;DHT22;38119;52.710;6.398;2023-08-31T05:12:40;11.80;99.90
52125;DHT22;38119;52.710;6.398;2023-08-31T05:15:06;11.80;99.90
52125;DHT22;38119;52.710;6.398;2023-08-31T05:17:32;11.80;99.90
52125;DHT22;38119;52.710;6.398;2023-08-31T05:19:57;11.80;99.90
52125;DHT22;38119;52.710;6.398;2023-08-31T05:22:23;11.80;99.90
52125;DHT22;38119;52.710;6.398;2023-08-31T05:24:49;11.80;99.90
52125;DHT22;38119;52.710;6.398;2023-08-31T05:27:14;11.80;99.90
52125;DHT22;38119;52.710;6.398;2023-08-31T05:29:40;11.80;99.90
52125;DHT22;38119;52.710;6.398;2023-08-31T05:32:06;11.80;99.90
52125;DHT22;38119;52.710;6.398;2023-08-31T05:34:31;11.80;99.90
52125;DHT22;38119;52.710;6.398;2023-08-31T05:37:00;11.90;99.90
52125;DHT22;38119;52.710;6.398;2023-08-31T05:39:25;11.90;99.90
52125;DHT22;38119;52.710;6.398;2023-08-31T05:41:51;11.90;99.90
52125;DHT22;38119;52.710;6.398;2023-08-31T05:44:16;11.90;99.90
52125;DHT22;38119;52.710;6.398;2023-08-31T05:46:42;11.90;99.90
52125;DHT22;38119;52.710;6.398;2023-08-31T05:49:08;12.00;99.90
52125;DHT22;38119;52.710;6.398;2023-08-31T05:51:34;12.00;99.90
52125;DHT22;38119;52.710;6.398;2023-08-31T05:54:00;12.10;99.90
52125;DHT22;38119;52.710;6.398;2023-08-31T05:56:25;12.10;99.90
52125;DHT22;38119;52.710;6.398;2023-08-31T05:58:51;12.20;99.90
52125;DHT22;38119;52.710;6.398;2023-08-31T06:01:20;12.20;99.90
52125;DHT22;38119;52.710;6.398;2023-08-31T06:03:47;12.30;99.90
52125;DHT22;38119;52.710;6.398;2023-08-31T06:06:14;12.30;99.90
52125;DHT22;38119;52.710;6.398;2023-08-31T06:08:39;12.40;99.90
52125;DHT22;38119;52.710;6.398;2023-08-31T06:11:05;12.40;99.90
52125;DHT22;38119;52.710;6.398;2023-08-31T06:13:31;12.40;99.90
52125;DHT22;38119;52.710;6.398;2023-08-31T06:15:57;12.40;99.90
52125;DHT22;38119;52.710;6.398;2023-08-31T06:18:23;12.50;99.90
52125;DHT22;38119;52.710;6.398;2023-08-31T06:20:49;12.60;99.90
52125;DHT22;38119;52.710;6.398;2023-08-31T06:23:15;12.70;99.90
52125;DHT22;38119;52.710;6.398;2023-08-31T06:25:40;12.70;99.90
52125;DHT22;38119;52.710;6.398;2023-08-31T06:28:06;12.80;99.90
52125;DHT22;38119;52.710;6.398;2023-08-31T06:30:34;12.80;99.90
52125;DHT22;38119;52.710;6.398;2023-08-31T06:33:00;12.80;99.90
52125;DHT22;38119;52.710;6.398;2023-08-31T06:35:26;12.80;99.90
52125;DHT22;38119;52.710;6.398;2023-08-31T06:37:51;12.90;99.90
52125;DHT22;38119;52.710;6.398;2023-08-31T06:40:17;12.90;99.90
52125;DHT22;38119;52.710;6.398;2023-08-31T06:42:43;12.90;99.90
52125;DHT22;38119;52.710;6.398;2023-08-31T06:45:09;13.00;99.90
52125;DHT22;38119;52.710;6.398;2023-08-31T06:47:37;13.00;99.90
52125;DHT22;38119;52.710;6.398;2023-08-31T06:50:03;13.00;99.90
52125;DHT22;38119;52.710;6.398;2023-08-31T06:52:29;13.00;99.90
52125;DHT22;38119;52.710;6.398;2023-08-31T06:54:55;12.80;99.90
52125;DHT22;38119;52.710;6.398;2023-08-31T06:57:25;13.00;99.90
52125;DHT22;38119;52.710;6.398;2023-08-31T06:59:52;13.10;99.90
52125;DHT22;38119;52.710;6.398;2023-08-31T07:02:17;13.10;99.90
52125;DHT22;38119;52.710;6.398;2023-08-31T07:04:45;13.10;99.90
52125;DHT22;38119;52.710;6.398;2023-08-31T07:07:11;13.20;99.90
52125;DHT22;38119;52.710;6.398;2023-08-31T07:09:42;13.30;99.90
52125;DHT22;38119;52.710;6.398;2023-08-31T07:12:09;13.40;99.90
52125;DHT22;38119;52.710;6.398;2023-08-31T07:14:35;13.40;99.90
52125;DHT22;38119;52.710;6.398;2023-08-31T07:17:01;13.50;99.90
52125;DHT22;38119;52.710;6.398;2023-08-31T07:19:26;13.40;99.90
52125;DHT22;38119;52.710;6.398;2023-08-31T07:21:52;13.50;99.90
52125;DHT22;38119;52.710;6.398;2023-08-31T07:24:20;13.50;99.90
52125;DHT22;38119;52.710;6.398;2023-08-31T07:26:47;13.50;99.90
52125;DHT22;38119;52.710;6.398;2023-08-31T07:29:13;13.60;99.90
52125;DHT22;38119;52.710;6.398;2023-08-31T07:31:38;13.60;99.90
52125;DHT22;38119;52.710;6.398;2023-08-31T07:34:04;13.70;99.90
52125;DHT22;38119;52.710;6.398;2023-08-31T07:36:30;13.70;99.90
52125;DHT22;38119;52.710;6.398;2023-08-31T07:38:55;13.80;99.90
52125;DHT22;38119;52.710;6.398;2023-08-31T07:41:21;13.80;99.90
52125;DHT22;38119;52.710;6.398;2023-08-31T07:43:46;13.90;99.90
52125;DHT22;38119;52.710;6.398;2023-08-31T07:46:12;14.00;99.90
52125;DHT22;38119;52.710;6.398;2023-08-31T07:48:38;14.00;99.90
52125;DHT22;38119;52.710;6.398;2023-08-31T07:51:04;14.10;99.90
52125;DHT22;38119;52.710;6.398;2023-08-31T07:53:30;14.10;99.90
52125;DHT22;38119;52.710;6.398;2023-08-31T07:55:56;14.20;99.90
52125;DHT22;38119;52.710;6.398;2023-08-31T07:58:24;14.30;99.90
52125;DHT22;38119;52.710;6.398;2023-08-31T08:00:55;14.40;99.90
52125;DHT22;38119;52.710;6.398;2023-08-31T08:03:22;14.50;99.90
52125;DHT22;38119;52.710;6.398;2023-08-31T08:05:47;14.50;99.90
52125;DHT22;38119;52.710;6.398;2023-08-31T08:08:13;14.60;99.90
52125;DHT22;38119;52.710;6.398;2023-08-31T08:10:39;14.60;99.90
52125;DHT22;38119;52.710;6.398;2023-08-31T08:13:04;14.80;99.90
52125;DHT22;38119;52.710;6.398;2023-08-31T08:15:30;14.80;99.90
52125;DHT22;38119;52.710;6.398;2023-08-31T08:17:56;15.00;99.90
52125;DHT22;38119;52.710;6.398;2023-08-31T08:20:26;15.00;99.90
52125;DHT22;38119;52.710;6.398;2023-08-31T08:22:52;15.10;99.90
52125;DHT22;38119;52.710;6.398;2023-08-31T08:25:20;15.00;99.90
52125;DHT22;38119;52.710;6.398;2023-08-31T08:27:47;15.00;99.90
52125;DHT22;38119;52.710;6.398;2023-08-31T08:30:13;15.00;99.90
52125;DHT22;38119;52.710;6.398;2023-08-31T08:32:41;15.00;99.90
52125;DHT22;38119;52.710;6.398;2023-08-31T08:35:07;14.90;99.90
52125;DHT22;38119;52.710;6.398;2023-08-31T08:37:32;15.00;99.90
52125;DHT22;38119;52.710;6.398;2023-08-31T08:39:58;15.00;99.90
52125;DHT22;38119;52.710;6.398;2023-08-31T08:42:25;15.10;99.90
52125;DHT22;38119;52.710;6.398;2023-08-31T08:44:50;15.20;99.90
52125;DHT22;38119;52.710;6.398;2023-08-31T08:47:17;15.40;99.90
52125;DHT22;38119;52.710;6.398;2023-08-31T08:49:43;15.50;99.90
52125;DHT22;38119;52.710;6.398;2023-08-31T08:52:10;15.60;99.90
52125;DHT22;38119;52.710;6.398;2023-08-31T08:54:38;15.70;99.90
52125;DHT22;38119;52.710;6.398;2023-08-31T08:57:04;15.60;99.90
52125;DHT22;38119;52.710;6.398;2023-08-31T08:59:33;15.60;99.90
52125;DHT22;38119;52.710;6.398;2023-08-31T09:01:58;15.70;99.90
52125;DHT22;38119;52.710;6.398;2023-08-31T09:04:24;15.90;99.90
52125;DHT22;38119;52.710;6.398;2023-08-31T09:06:53;16.10;99.90
52125;DHT22;38119;52.710;6.398;2023-08-31T09:09:18;16.10;99.90
52125;DHT22;38119;52.710;6.398;2023-08-31T09:11:45;16.20;99.90
52125;DHT22;38119;52.710;6.398;2023-08-31T09:14:18;16.30;99.90
52125;DHT22;38119;52.710;6.398;2023-08-31T09:16:49;16.60;99.90
52125;DHT22;38119;52.710;6.398;2023-08-31T09:19:19;16.90;99.90
52125;DHT22;38119;52.710;6.398;2023-08-31T09:21:55;17.20;99.90
52125;DHT22;38119;52.710;6.398;2023-08-31T09:24:21;17.30;99.90
52125;DHT22;38119;52.710;6.398;2023-08-31T09:26:55;17.40;99.90
52125;DHT22;38119;52.710;6.398;2023-08-31T09:29:21;17.40;99.90
52125;DHT22;38119;52.710;6.398;2023-08-31T09:31:46;17.40;99.90
52125;DHT22;38119;52.710;6.398;2023-08-31T09:34:17;17.60;99.90
52125;DHT22;38119;52.710;6.398;2023-08-31T09:36:43;17.50;99.90
52125;DHT22;38119;52.710;6.398;2023-08-31T09:39:10;17.50;99.90
52125;DHT22;38119;52.710;6.398;2023-08-31T09:41:53;17.60;99.90
52125;DHT22;38119;52.710;6.398;2023-08-31T09:44:20;17.80;99.90
52125;DHT22;38119;52.710;6.398;2023-08-31T09:46:46;17.90;99.90
52125;DHT22;38119;52.710;6.398;2023-08-31T09:49:14;18.00;99.90
52125;DHT22;38119;52.710;6.398;2023-08-31T09:51:43;18.10;99.90
52125;DHT22;38119;52.710;6.398;2023-08-31T09:54:16;18.30;99.90
52125;DHT22;38119;52.710;6.398;2023-08-31T09:56:43;18.50;99.90
52125;DHT22;38119;52.710;6.398;2023-08-31T09:59:14;18.50;99.90
52125;DHT22;38119;52.710;6.398;2023-08-31T10:01:41;18.40;99.90
52125;DHT22;38119;52.710;6.398;2023-08-31T10:04:07;18.40;99.90
52125;DHT22;38119;52.710;6.398;2023-08-31T10:06:39;18.60;99.90
52125;DHT22;38119;52.710;6.398;2023-08-31T10:09:05;18.80;99.90
52125;DHT22;38119;52.710;6.398;2023-08-31T10:11:31;18.80;99.90
52125;DHT22;38119;52.710;6.398;2023-08-31T10:13:58;18.60;99.90
52125;DHT22;38119;52.710;6.398;2023-08-31T10:16:25;18.20;99.90
52125;DHT22;38119;52.710;6.398;2023-08-31T10:18:52;17.80;99.90
52125;DHT22;38119;52.710;6.398;2023-08-31T10:21:19;17.50;99.90
52125;DHT22;38119;52.710;6.398;2023-08-31T10:23:46;17.20;99.90
52125;DHT22;38119;52.710;6.398;2023-08-31T10:26:12;16.90;99.90
52125;DHT22;38119;52.710;6.398;2023-08-31T10:28:47;16.60;99.90
52125;DHT22;38119;52.710;6.398;2023-08-31T10:31:17;16.40;99.90
52125;DHT22;38119;52.710;6.398;2023-08-31T10:33:44;16.30;99.90
52125;DHT22;38119;52.710;6.398;2023-08-31T10:36:18;16.40;99.90
52125;DHT22;38119;52.710;6.398;2023-08-31T10:41:22;17.30;99.90
52125;DHT22;38119;52.710;6.398;2023-08-31T10:46:26;18.00;99.90
52125;DHT22;38119;52.710;6.398;2023-08-31T10:48:57;18.10;99.90
52125;DHT22;38119;52.710;6.398;2023-08-31T10:51:31;18.10;99.90
52125;DHT22;38119;52.710;6.398;2023-08-31T10:54:22;18.00;99.90
52125;DHT22;38119;52.710;6.398;2023-08-31T10:56:56;18.00;99.90
52125;DHT22;38119;52.710;6.398;2023-08-31T10:59:40;17.90;99.90
52125;DHT22;38119;52.710;6.398;2023-08-31T11:02:06;17.70;99.90
52125;DHT22;38119;52.710;6.398;2023-08-31T11:04:52;17.60;99.90
52125;DHT22;38119;52.710;6.398;2023-08-31T11:07:19;17.40;99.90
52125;DHT22;38119;52.710;6.398;2023-08-31T11:09:46;17.30;99.90
52125;DHT22;38119;52.710;6.398;2023-08-31T11:12:12;17.10;99.90
52125;DHT22;38119;52.710;6.398;2023-08-31T11:14:38;17.10;99.90
52125;DHT22;38119;52.710;6.398;2023-08-31T11:17:04;16.90;99.90
52125;DHT22;38119;52.710;6.398;2023-08-31T11:19:31;16.80;99.90
52125;DHT22;38119;52.710;6.398;2023-08-31T11:22:02;16.70;99.90
52125;DHT22;38119;52.710;6.398;2023-08-31T11:24:29;16.60;99.90
52125;DHT22;38119;52.710;6.398;2023-08-31T11:26:55;16.40;99.90
52125;DHT22;38119;52.710;6.398;2023-08-31T11:29:21;16.20;99.90
52125;DHT22;38119;52.710;6.398;2023-08-31T11:31:46;16.00;99.90
52125;DHT22;38119;52.710;6.398;2023-08-31T11:34:13;15.80;99.90
52125;DHT22;38119;52.710;6.398;2023-08-31T11:36:41;15.60;99.90
52125;DHT22;38119;52.710;6.398;2023-08-31T11:39:08;15.30;99.90
52125;DHT22;38119;52.710;6.398;2023-08-31T11:41:34;15.20;99.90
52125;DHT22;38119;52.710;6.398;2023-08-31T11:44:03;15.10;99.90
52125;DHT22;38119;52.710;6.398;2023-08-31T11:46:29;15.00;99.90
52125;DHT22;38119;52.710;6.398;2023-08-31T11:48:55;15.00;99.90
52125;DHT22;38119;52.710;6.398;2023-08-31T11:51:21;15.10;99.90
52125;DHT22;38119;52.710;6.398;2023-08-31T11:53:47;15.30;99.90
52125;DHT22;38119;52.710;6.398;2023-08-31T11:56:13;15.40;99.90
52125;DHT22;38119;52.710;6.398;2023-08-31T11:58:42;15.60;99.90
52125;DHT22;38119;52.710;6.398;2023-08-31T12:01:08;15.70;99.90
52125;DHT22;38119;52.710;6.398;2023-08-31T12:03:44;15.70;99.90
52125;DHT22;38119;52.710;6.398;2023-08-31T12:06:10;15.80;99.90
52125;DHT22;38119;52.710;6.398;2023-08-31T12:08:37;15.70;99.90
52125;DHT22;38119;52.710;6.398;2023-08-31T12:11:05;15.70;99.90
52125;DHT22;38119;52.710;6.398;2023-08-31T12:13:31;15.70;99.90
52125;DHT22;38119;52.710;6.398;2023-08-31T12:15:58;15.50;99.90
52125;DHT22;38119;52.710;6.398;2023-08-31T12:18:23;15.50;99.90
52125;DHT22;38119;52.710;6.398;2023-08-31T12:20:52;15.50;99.90
52125;DHT22;38119;52.710;6.398;2023-08-31T12:23:18;15.40;99.90
52125;DHT22;38119;52.710;6.398;2023-08-31T12:25:53;15.30;99.90
52125;DHT22;38119;52.710;6.398;2023-08-31T12:28:21;15.20;99.90
52125;DHT22;38119;52.710;6.398;2023-08-31T12:30:52;15.10;99.90
52125;DHT22;38119;52.710;6.398;2023-08-31T12:33:19;15.00;99.90
52125;DHT22;38119;52.710;6.398;2023-08-31T12:35:44;14.90;99.90
52125;DHT22;38119;52.710;6.398;2023-08-31T12:38:11;14.90;99.90
52125;DHT22;38119;52.710;6.398;2023-08-31T12:40:37;14.90;99.90
52125;DHT22;38119;52.710;6.398;2023-08-31T12:43:06;15.00;99.90
52125;DHT22;38119;52.710;6.398;2023-08-31T12:45:32;15.10;99.90
52125;DHT22;38119;52.710;6.398;2023-08-31T12:47:58;15.10;99.90
52125;DHT22;38119;52.710;6.398;2023-08-31T12:50:24;15.30;99.90
52125;DHT22;38119;52.710;6.398;2023-08-31T12:52:50;15.60;99.90
52125;DHT22;38119;52.710;6.398;2023-08-31T12:55:16;15.90;99.90
52125;DHT22;38119;52.710;6.398;2023-08-31T12:57:42;16.10;99.90
52125;DHT22;38119;52.710;6.398;2023-08-31T13:00:09;16.50;99.90
52125;DHT22;38119;52.710;6.398;2023-08-31T13:02:41;16.70;99.90
52125;DHT22;38119;52.710;6.398;2023-08-31T13:05:07;17.10;99.90
52125;DHT22;38119;52.710;6.398;2023-08-31T13:07:37;17.30;99.90
52125;DHT22;38119;52.710;6.398;2023-08-31T13:10:04;17.60;99.90
52125;DHT22;38119;52.710;6.398;2023-08-31T13:12:31;17.80;99.90
52125;DHT22;38119;52.710;6.398;2023-08-31T13:14:58;18.10;99.90
52125;DHT22;38119;52.710;6.398;2023-08-31T13:17:23;18.30;99.90
52125;DHT22;38119;52.710;6.398;2023-08-31T13:19:53;18.60;99.90
52125;DHT22;38119;52.710;6.398;2023-08-31T13:22:18;18.90;99.90
52125;DHT22;38119;52.710;6.398;2023-08-31T13:24:45;19.20;99.90
52125;DHT22;38119;52.710;6.398;2023-08-31T13:27:10;19.40;99.90
52125;DHT22;38119;52.710;6.398;2023-08-31T13:29:36;19.40;99.90
52125;DHT22;38119;52.710;6.398;2023-08-31T13:32:01;19.50;99.90
52125;DHT22;38119;52.710;6.398;2023-08-31T13:34:27;19.60;99.90
52125;DHT22;38119;52.710;6.398;2023-08-31T13:36:53;19.90;99.90
52125;DHT22;38119;52.710;6.398;2023-08-31T13:39:18;19.90;99.90
52125;DHT22;38119;52.710;6.398;2023-08-31T13:41:44;19.90;99.90
52125;DHT22;38119;52.710;6.398;2023-08-31T13:44:11;19.80;99.90
52125;DHT22;38119;52.710;6.398;2023-08-31T13:46:37;19.70;99.90
52125;DHT22;38119;52.710;6.398;2023-08-31T13:49:02;19.60;99.90
52125;DHT22;38119;52.710;6.398;2023-08-31T13:51:28;19.50;99.90
52125;DHT22;38119;52.710;6.398;2023-08-31T13:53:54;19.30;99.90
52125;DHT22;38119;52.710;6.398;2023-08-31T13:56:19;19.00;99.90
52125;DHT22;38119;52.710;6.398;2023-08-31T13:58:45;18.90;99.90
52125;DHT22;38119;52.710;6.398;2023-08-31T14:01:11;18.70;99.90
52125;DHT22;38119;52.710;6.398;2023-08-31T14:03:38;18.70;99.90
52125;DHT22;38119;52.710;6.398;2023-08-31T14:06:04;18.80;99.90
52125;DHT22;38119;52.710;6.398;2023-08-31T14:08:29;19.00;99.90
52125;DHT22;38119;52.710;6.398;2023-08-31T14:10:55;19.20;99.90
52125;DHT22;38119;52.710;6.398;2023-08-31T14:13:21;19.40;99.90
52125;DHT22;38119;52.710;6.398;2023-08-31T14:15:47;19.50;99.90
52125;DHT22;38119;52.710;6.398;2023-08-31T14:18:16;19.60;99.90
52125;DHT22;38119;52.710;6.398;2023-08-31T14:20:41;19.60;99.90
52125;DHT22;38119;52.710;6.398;2023-08-31T14:23:08;19.50;99.90
52125;DHT22;38119;52.710;6.398;2023-08-31T14:25:37;19.50;99.90
52125;DHT22;38119;52.710;6.398;2023-08-31T14:28:04;19.40;99.90
52125;DHT22;38119;52.710;6.398;2023-08-31T14:30:30;19.30;99.90
52125;DHT22;38119;52.710;6.398;2023-08-31T14:32:56;19.30;99.90
52125;DHT22;38119;52.710;6.398;2023-08-31T14:35:22;19.40;99.90
52125;DHT22;38119;52.710;6.398;2023-08-31T14:37:47;19.50;99.90
52125;DHT22;38119;52.710;6.398;2023-08-31T14:40:13;19.60;99.90
52125;DHT22;38119;52.710;6.398;2023-08-31T14:42:42;19.70;99.90
52125;DHT22;38119;52.710;6.398;2023-08-31T14:45:09;19.80;99.90
52125;DHT22;38119;52.710;6.398;2023-08-31T14:47:36;19.80;99.90
52125;DHT22;38119;52.710;6.398;2023-08-31T14:50:03;19.80;99.90
52125;DHT22;38119;52.710;6.398;2023-08-31T14:52:31;19.80;99.90
52125;DHT22;38119;52.710;6.398;2023-08-31T14:55:01;19.70;99.90
52125;DHT22;38119;52.710;6.398;2023-08-31T14:57:36;19.50;99.90
52125;DHT22;38119;52.710;6.398;2023-08-31T15:00:08;19.40;99.90
52125;DHT22;38119;52.710;6.398;2023-08-31T15:02:34;19.50;99.90
52125;DHT22;38119;52.710;6.398;2023-08-31T15:05:00;19.50;99.90
52125;DHT22;38119;52.710;6.398;2023-08-31T15:07:33;19.50;99.90
52125;DHT22;38119;52.710;6.398;2023-08-31T15:09:59;19.30;99.90
52125;DHT22;38119;52.710;6.398;2023-08-31T15:12:28;19.20;99.90
52125;DHT22;38119;52.710;6.398;2023-08-31T15:14:55;19.20;99.90
52125;DHT22;38119;52.710;6.398;2023-08-31T15:17:21;19.20;99.90
52125;DHT22;38119;52.710;6.398;2023-08-31T15:19:47;19.20;99.90
52125;DHT22;38119;52.710;6.398;2023-08-31T15:22:13;19.30;99.90
52125;DHT22;38119;52.710;6.398;2023-08-31T15:24:38;19.40;99.90
52125;DHT22;38119;52.710;6.398;2023-08-31T15:27:08;19.60;99.90
52125;DHT22;38119;52.710;6.398;2023-08-31T15:29:38;19.70;99.90
52125;DHT22;38119;52.710;6.398;2023-08-31T15:32:05;19.70;99.90
52125;DHT22;38119;52.710;6.398;2023-08-31T15:34:31;19.60;99.90
52125;DHT22;38119;52.710;6.398;2023-08-31T15:36:59;19.80;99.90
52125;DHT22;38119;52.710;6.398;2023-08-31T15:39:26;19.30;99.90